createdAt,value
2022-08-29T00:00:38.869Z,8.55
2022-08-29T00:03:09.728Z,7.78
2022-08-29T00:05:37.908Z,8.23
2022-08-29T00:08:08.047Z,8.40
2022-08-29T00:10:37.089Z,8.60
2022-08-29T00:13:05.890Z,8.70
2022-08-29T00:15:33.221Z,8.02
2022-08-29T00:18:12.173Z,7.43
2022-08-29T00:20:39.110Z,7.63
2022-08-29T00:23:07.110Z,7.45
2022-08-29T00:25:34.561Z,8.00
2022-08-29T00:28:02.129Z,7.43
2022-08-29T00:30:29.565Z,7.47
2022-08-29T00:32:56.431Z,7.00
2022-08-29T00:35:27.737Z,7.15
2022-08-29T00:37:55.146Z,6.50
2022-08-29T00:40:26.651Z,6.38
2022-08-29T00:42:53.570Z,6.07
2022-08-29T00:45:20.686Z,6.15
2022-08-29T00:48:08.848Z,5.40
2022-08-29T00:50:40.868Z,5.10
2022-08-29T00:53:13.654Z,5.28
2022-08-29T00:55:43.485Z,4.82
2022-08-29T00:58:25.658Z,4.93
2022-08-29T01:00:53.900Z,5.50
2022-08-29T01:03:21.237Z,5.03
2022-08-29T01:05:48.822Z,4.70
2022-08-29T01:08:16.013Z,5.57
2022-08-29T01:11:02.059Z,4.85
2022-08-29T01:13:35.428Z,4.78
2022-08-29T01:16:03.792Z,4.43
2022-08-29T01:18:35.448Z,5.13
2022-08-29T01:21:09.102Z,5.00
2022-08-29T01:23:51.350Z,5.30
2022-08-29T01:26:18.338Z,4.97
2022-08-29T01:28:48.463Z,4.60
2022-08-29T01:31:46.075Z,4.53
2022-08-29T01:34:10.787Z,5.00
2022-08-29T01:37:02.042Z,5.40
2022-08-29T01:39:32.153Z,5.65
2022-08-29T01:42:01.283Z,4.85
2022-08-29T01:44:28.417Z,5.13
2022-08-29T01:47:02.731Z,5.25
2022-08-29T01:49:33.053Z,5.25
2022-08-29T01:52:00.186Z,5.70
2022-08-29T01:54:29.489Z,6.00
2022-08-29T01:56:56.372Z,4.93
2022-08-29T01:59:27.342Z,4.80
2022-08-29T02:02:13.153Z,5.45
2022-08-29T02:04:40.952Z,5.32
2022-08-29T02:07:12.039Z,4.63
2022-08-29T02:09:40.334Z,5.20
2022-08-29T02:12:13.920Z,4.75
2022-08-29T02:14:41.507Z,5.65
2022-08-29T02:17:08.926Z,5.38
2022-08-29T02:19:36.676Z,6.13
2022-08-29T02:22:04.567Z,4.93
2022-08-29T02:24:31.399Z,5.40
2022-08-29T02:26:58.781Z,6.22
2022-08-29T02:29:30.875Z,5.00
2022-08-29T02:32:07.193Z,5.55
2022-08-29T02:34:35.018Z,5.68
2022-08-29T02:37:02.581Z,5.53
2022-08-29T02:39:29.745Z,5.47
2022-08-29T02:41:56.855Z,6.07
2022-08-29T02:44:23.609Z,5.55
2022-08-29T02:46:50.909Z,6.18
2022-08-29T02:49:17.714Z,6.03
2022-08-29T02:51:45.421Z,5.80
2022-08-29T02:54:12.935Z,5.20
2022-08-29T02:56:41.222Z,5.53
2022-08-29T02:59:08.641Z,5.75
2022-08-29T03:01:38.778Z,5.55
2022-08-29T03:04:06.533Z,6.95
2022-08-29T03:06:33.359Z,5.88
2022-08-29T03:09:01.232Z,6.28
2022-08-29T03:11:28.910Z,5.85
2022-08-29T03:13:57.734Z,6.07
2022-08-29T03:16:26.338Z,6.13
2022-08-29T03:18:53.993Z,6.25
2022-08-29T03:21:23.987Z,6.20
2022-08-29T03:23:51.727Z,5.80
2022-08-29T03:26:19.693Z,5.85
2022-08-29T03:28:46.894Z,5.85
2022-08-29T03:31:13.782Z,6.03
2022-08-29T03:33:40.583Z,5.60
2022-08-29T03:36:14.288Z,5.80
2022-08-29T03:38:46.643Z,5.88
2022-08-29T03:41:22.466Z,5.50
2022-08-29T03:43:49.511Z,6.00
2022-08-29T03:46:16.336Z,6.07
2022-08-29T03:48:43.508Z,5.60
2022-08-29T03:51:10.344Z,5.85
2022-08-29T03:53:37.093Z,6.32
2022-08-29T03:56:04.625Z,5.65
2022-08-29T03:58:31.736Z,5.65
2022-08-29T04:00:59.190Z,6.07
2022-08-29T04:03:31.032Z,6.65
2022-08-29T04:05:59.035Z,7.30
2022-08-29T04:08:25.849Z,6.63
2022-08-29T04:10:52.623Z,6.72
2022-08-29T04:13:19.352Z,6.53
2022-08-29T04:15:46.212Z,7.38
2022-08-29T04:18:13.004Z,7.53
2022-08-29T04:20:45.181Z,8.00
2022-08-29T04:23:14.008Z,7.78
2022-08-29T04:25:42.899Z,7.32
2022-08-29T04:28:12.543Z,6.97
2022-08-29T04:30:51.292Z,8.18
2022-08-29T04:33:22.844Z,7.63
2022-08-29T04:35:50.713Z,7.15
2022-08-29T04:38:17.674Z,7.47
2022-08-29T04:40:44.991Z,8.20
2022-08-29T04:43:12.171Z,7.55
2022-08-29T04:45:42.767Z,7.65
2022-08-29T04:48:10.951Z,6.68
2022-08-29T04:50:38.061Z,7.45
2022-08-29T04:53:04.909Z,7.72
2022-08-29T04:55:31.905Z,7.20
2022-08-29T04:57:58.904Z,7.97
2022-08-29T05:00:30.255Z,7.40
2022-08-29T05:05:25.383Z,7.07
2022-08-29T05:07:52.247Z,7.18
2022-08-29T05:10:21.327Z,7.47
2022-08-29T05:12:48.996Z,7.95
2022-08-29T05:15:16.825Z,7.72
2022-08-29T05:17:44.309Z,8.57
2022-08-29T05:20:11.525Z,8.45
2022-08-29T05:22:39.453Z,8.95
2022-08-29T05:25:07.141Z,8.75
2022-08-29T05:27:34.336Z,8.00
2022-08-29T05:30:01.576Z,7.15
2022-08-29T05:32:28.343Z,7.72
2022-08-29T05:34:56.288Z,8.65
2022-08-29T05:37:23.962Z,7.72
2022-08-29T05:39:51.512Z,8.18
2022-08-29T05:42:21.133Z,7.90
2022-08-29T05:44:48.015Z,8.23
2022-08-29T05:47:18.389Z,8.48
2022-08-29T05:49:47.362Z,8.53
2022-08-29T05:52:16.717Z,7.97
2022-08-29T05:54:44.278Z,7.80
2022-08-29T05:57:18.171Z,7.30
2022-08-29T05:59:46.782Z,7.53
2022-08-29T06:02:13.724Z,7.43
2022-08-29T06:04:41.137Z,7.75
2022-08-29T06:07:09.030Z,6.78
2022-08-29T06:09:37.509Z,7.45
2022-08-29T06:12:05.552Z,7.30
2022-08-29T06:14:32.928Z,7.75
2022-08-29T06:16:59.974Z,7.25
2022-08-29T06:19:26.876Z,6.70
2022-08-29T06:21:57.038Z,6.30
2022-08-29T06:24:23.873Z,7.07
2022-08-29T06:26:50.629Z,5.90
2022-08-29T06:29:17.517Z,6.60
2022-08-29T06:31:44.348Z,5.65
2022-08-29T06:34:11.285Z,6.90
2022-08-29T06:36:38.890Z,5.47
2022-08-29T06:39:09.423Z,6.20
2022-08-29T06:41:38.276Z,6.03
2022-08-29T06:44:05.790Z,5.72
2022-08-29T06:46:35.578Z,4.40
2022-08-29T06:49:04.163Z,4.18
2022-08-29T06:51:33.347Z,4.50
2022-08-29T06:54:02.278Z,4.32
2022-08-29T06:56:29.947Z,4.53
2022-08-29T06:58:57.348Z,4.68
2022-08-29T07:01:25.117Z,4.65
2022-08-29T07:03:57.065Z,5.10
2022-08-29T07:06:25.498Z,4.85
2022-08-29T07:08:55.337Z,4.28
2022-08-29T07:11:27.946Z,5.35
2022-08-29T07:13:57.348Z,4.85
2022-08-29T07:16:24.181Z,4.40
2022-08-29T07:18:53.504Z,4.45
2022-08-29T07:21:23.659Z,4.30
2022-08-29T07:23:51.948Z,3.73
2022-08-29T07:26:30.583Z,4.63
2022-08-29T07:29:03.351Z,4.00
2022-08-29T07:31:31.308Z,3.72
2022-08-29T07:34:02.428Z,3.90
2022-08-29T07:36:31.445Z,4.03
2022-08-29T07:38:58.482Z,4.05
2022-08-29T07:41:25.643Z,3.58
2022-08-29T07:43:52.812Z,4.05
2022-08-29T07:46:20.756Z,3.90
2022-08-29T07:48:48.223Z,4.15
2022-08-29T07:51:18.960Z,4.00
2022-08-29T07:56:18.734Z,3.90
2022-08-29T07:58:46.500Z,4.03
2022-08-29T08:01:21.131Z,4.25
2022-08-29T08:03:52.312Z,3.88
2022-08-29T08:06:21.471Z,3.80
2022-08-29T08:08:49.675Z,3.92
2022-08-29T08:11:17.721Z,3.88
2022-08-29T08:13:44.853Z,4.45
2022-08-29T08:16:15.145Z,4.13
2022-08-29T08:18:43.996Z,3.72
2022-08-29T08:21:14.396Z,12.13
2022-08-29T08:23:42.120Z,3.78
2022-08-29T08:26:10.914Z,4.63
2022-08-29T08:28:38.533Z,3.45
2022-08-29T08:31:07.718Z,3.92
2022-08-29T08:33:36.058Z,14.52
2022-08-29T08:36:15.235Z,4.28
2022-08-29T08:38:43.128Z,5.70
2022-08-29T08:41:16.917Z,4.75
2022-08-29T08:43:55.176Z,3.28
2022-08-29T08:46:34.457Z,3.22
2022-08-29T08:49:03.748Z,3.70
2022-08-29T08:51:35.141Z,3.30
2022-08-29T08:54:06.866Z,3.47
2022-08-29T08:56:44.206Z,3.60
2022-08-29T08:59:30.294Z,3.58
2022-08-29T09:02:01.696Z,3.42
2022-08-29T09:04:52.968Z,9.63
2022-08-29T09:08:10.687Z,3.88
2022-08-29T09:10:58.543Z,3.22
2022-08-29T09:13:46.787Z,3.70
2022-08-29T09:16:41.513Z,3.33
2022-08-29T09:19:11.551Z,3.03
2022-08-29T09:21:44.306Z,2.92
2022-08-29T09:24:32.338Z,3.22
2022-08-29T09:26:59.084Z,3.00
2022-08-29T09:29:31.056Z,3.33
2022-08-29T09:32:20.181Z,3.38
2022-08-29T09:37:36.792Z,4.22
2022-08-29T09:40:18.930Z,3.72
2022-08-29T09:43:00.656Z,2.92
2022-08-29T09:45:27.616Z,3.45
2022-08-29T09:48:21.327Z,3.50
2022-08-29T09:50:48.581Z,3.63
2022-08-29T09:53:24.628Z,3.35
2022-08-29T09:55:53.258Z,3.40
2022-08-29T09:58:20.167Z,6.43
2022-08-29T10:01:06.399Z,3.78
2022-08-29T10:03:36.712Z,3.20
2022-08-29T10:06:15.054Z,3.88
2022-08-29T10:08:44.001Z,3.40
2022-08-29T10:11:16.823Z,3.53
2022-08-29T10:13:54.432Z,3.28
2022-08-29T10:16:39.979Z,3.45
2022-08-29T10:19:33.050Z,3.33
2022-08-29T10:22:25.441Z,6.72
2022-08-29T10:25:06.396Z,3.42
2022-08-29T10:30:11.760Z,3.20
2022-08-29T10:33:04.764Z,3.25
2022-08-29T10:35:44.135Z,2.92
2022-08-29T10:38:23.106Z,3.30
2022-08-29T10:40:55.459Z,3.28
2022-08-29T10:43:32.077Z,4.18
2022-08-29T10:46:27.996Z,3.13
2022-08-29T10:49:24.053Z,4.05
2022-08-29T10:52:11.686Z,3.83
2022-08-29T10:54:46.105Z,3.67
2022-08-29T10:57:25.915Z,3.22
2022-08-29T11:00:13.252Z,3.47
2022-08-29T11:03:13.433Z,4.07
2022-08-29T11:05:46.140Z,3.55
2022-08-29T11:08:23.478Z,3.13
2022-08-29T11:10:52.643Z,3.03
2022-08-29T11:13:59.445Z,3.53
2022-08-29T11:16:34.094Z,3.67
2022-08-29T11:19:05.704Z,3.83
2022-08-29T11:21:37.926Z,3.50
2022-08-29T11:24:07.332Z,3.42
2022-08-29T11:26:34.019Z,3.53
2022-08-29T11:29:31.510Z,3.78
2022-08-29T11:32:36.258Z,4.15
2022-08-29T11:35:24.463Z,3.05
2022-08-29T11:38:20.189Z,2.90
2022-08-29T11:41:26.374Z,3.15
2022-08-29T11:43:40.844Z,3.85
2022-08-29T11:46:10.271Z,3.10
2022-08-29T11:48:40.933Z,3.05
2022-08-29T11:51:39.412Z,2.90
2022-08-29T11:54:25.558Z,3.50
2022-08-29T11:57:01.608Z,3.38
2022-08-29T11:59:48.652Z,3.20
2022-08-29T12:02:27.629Z,3.15
2022-08-29T12:04:57.306Z,3.05
2022-08-29T12:07:35.314Z,3.00
2022-08-29T12:10:06.728Z,3.20
2022-08-29T12:12:46.068Z,3.03
2022-08-29T12:15:28.080Z,2.35
2022-08-29T12:18:02.560Z,2.25
2022-08-29T12:20:30.241Z,2.10
2022-08-29T12:23:06.899Z,2.63
2022-08-29T12:26:21.076Z,2.50
2022-08-29T12:28:46.716Z,3.05
2022-08-29T12:31:31.789Z,2.28
2022-08-29T12:34:23.496Z,2.83
2022-08-29T12:37:16.390Z,2.50
2022-08-29T12:40:01.932Z,2.90
2022-08-29T12:42:47.426Z,2.13
2022-08-29T12:45:19.133Z,2.47
2022-08-29T12:47:52.653Z,2.47
2022-08-29T12:50:24.237Z,1.85
2022-08-29T12:53:15.778Z,2.30
2022-08-29T12:55:46.662Z,2.20
2022-08-29T13:00:42.242Z,1.98
2022-08-29T13:03:19.753Z,2.15
2022-08-29T13:05:47.606Z,2.25
2022-08-29T13:08:37.418Z,2.30
2022-08-29T13:11:11.696Z,2.25
2022-08-29T13:13:39.030Z,2.78
2022-08-29T13:16:08.861Z,2.47
2022-08-29T13:18:49.174Z,2.53
2022-08-29T13:21:34.735Z,2.05
2022-08-29T13:24:19.556Z,2.47
2022-08-29T13:27:04.717Z,2.58
2022-08-29T13:29:39.071Z,2.85
2022-08-29T13:32:24.503Z,2.35
2022-08-29T13:35:06.362Z,2.40
2022-08-29T13:37:39.079Z,2.80
2022-08-29T13:40:50.645Z,2.38
2022-08-29T13:43:43.377Z,2.47
2022-08-29T13:46:14.816Z,3.05
2022-08-29T13:48:42.870Z,2.33
2022-08-29T13:51:09.922Z,2.20
2022-08-29T13:53:36.727Z,2.10
2022-08-29T13:56:04.642Z,2.30
2022-08-29T13:58:31.673Z,2.47
2022-08-29T14:00:58.748Z,2.35
2022-08-29T14:03:25.729Z,2.50
2022-08-29T14:05:56.736Z,2.25
2022-08-29T14:10:51.919Z,2.20
2022-08-29T14:13:18.862Z,2.42
2022-08-29T14:15:46.197Z,2.38
2022-08-29T14:18:13.444Z,2.35
2022-08-29T14:20:40.361Z,2.38
2022-08-29T14:23:07.365Z,2.88
2022-08-29T14:25:34.245Z,2.38
2022-08-29T14:28:01.085Z,2.28
2022-08-29T14:30:27.869Z,2.53
2022-08-29T14:32:54.761Z,2.40
2022-08-29T14:35:27.410Z,2.60
2022-08-29T14:37:58.679Z,2.63
2022-08-29T14:40:26.168Z,2.45
2022-08-29T14:42:55.971Z,2.35
2022-08-29T14:45:22.785Z,2.03
2022-08-29T14:47:49.570Z,2.53
2022-08-29T14:50:16.847Z,2.78
2022-08-29T14:52:43.774Z,2.50
2022-08-29T14:55:11.861Z,2.50
2022-08-29T14:57:39.320Z,2.80
2022-08-29T15:00:09.946Z,2.50
2022-08-29T15:02:36.694Z,2.35
2022-08-29T15:05:03.776Z,2.70
2022-08-29T15:07:30.592Z,2.53
2022-08-29T15:09:57.634Z,2.70
2022-08-29T15:12:27.941Z,3.25
2022-08-29T15:14:56.425Z,2.40
2022-08-29T15:17:24.231Z,2.70
2022-08-29T15:20:33.956Z,3.20
2022-08-29T15:22:39.889Z,2.60
2022-08-29T15:25:07.224Z,2.85
2022-08-29T15:27:34.228Z,2.40
2022-08-29T15:30:01.074Z,3.10
2022-08-29T15:32:27.850Z,2.90
2022-08-29T15:34:54.617Z,2.92
2022-08-29T15:37:22.434Z,2.65
2022-08-29T15:39:54.467Z,2.80
2022-08-29T15:42:28.676Z,3.35
2022-08-29T15:44:56.326Z,2.80
2022-08-29T15:47:23.084Z,3.20
2022-08-29T15:49:53.379Z,2.83
2022-08-29T15:52:20.247Z,2.95
2022-08-29T15:54:46.990Z,3.22
2022-08-29T15:57:13.828Z,2.63
2022-08-29T15:59:57.523Z,2.78
2022-08-29T16:02:24.876Z,3.17
2022-08-29T16:04:56.059Z,3.17
2022-08-29T16:07:29.107Z,2.95
2022-08-29T16:09:56.670Z,2.75
2022-08-29T16:12:23.472Z,2.80
2022-08-29T16:14:59.568Z,2.63
2022-08-29T16:17:29.911Z,2.95
2022-08-29T16:19:58.261Z,3.30
2022-08-29T16:22:27.852Z,2.83
2022-08-29T16:24:55.709Z,2.65
2022-08-29T16:27:24.288Z,2.85
2022-08-29T16:29:52.637Z,3.33
2022-08-29T16:32:20.300Z,3.20
2022-08-29T16:34:47.136Z,3.30
2022-08-29T16:37:13.890Z,2.85
2022-08-29T16:39:40.804Z,3.38
2022-08-29T16:42:07.970Z,3.13
2022-08-29T16:44:34.794Z,3.22
2022-08-29T16:47:02.161Z,3.53
2022-08-29T16:49:28.967Z,3.25
2022-08-29T16:51:57.558Z,2.90
2022-08-29T16:54:25.734Z,3.45
2022-08-29T16:56:53.022Z,3.72
2022-08-29T16:59:19.810Z,3.55
2022-08-29T17:01:52.266Z,3.40
2022-08-29T17:04:28.603Z,2.75
2022-08-29T17:06:56.329Z,3.08
2022-08-29T17:09:24.902Z,3.35
2022-08-29T17:11:52.882Z,3.40
2022-08-29T17:14:21.446Z,3.38
2022-08-29T17:16:50.100Z,3.67
2022-08-29T17:19:17.522Z,4.32
2022-08-29T17:21:45.058Z,5.00
2022-08-29T17:24:12.963Z,5.00
2022-08-29T17:26:43.224Z,5.85
2022-08-29T17:29:11.365Z,5.20
2022-08-29T17:31:38.348Z,4.70
2022-08-29T17:34:07.539Z,6.65
2022-08-29T17:36:36.827Z,5.85
2022-08-29T17:39:05.358Z,5.57
2022-08-29T17:41:33.111Z,3.78
2022-08-29T17:44:02.219Z,4.10
2022-08-29T17:46:29.806Z,3.58
2022-08-29T17:48:56.938Z,3.70
2022-08-29T17:51:23.719Z,4.00
2022-08-29T17:53:51.249Z,4.30
2022-08-29T17:56:29.536Z,4.00
2022-08-29T17:58:57.640Z,4.20
2022-08-29T18:01:24.675Z,3.67
2022-08-29T18:03:52.044Z,3.55
2022-08-29T18:06:19.469Z,4.00
2022-08-29T18:08:48.483Z,4.45
2022-08-29T18:11:17.790Z,4.50
2022-08-29T18:13:45.382Z,4.63
2022-08-29T18:16:12.347Z,3.92
2022-08-29T18:18:39.776Z,4.00
2022-08-29T18:21:06.636Z,3.83
2022-08-29T18:23:33.745Z,3.80
2022-08-29T18:26:01.736Z,3.85
2022-08-29T18:28:28.518Z,4.15
2022-08-29T18:30:56.061Z,3.17
2022-08-29T18:33:24.546Z,4.03
2022-08-29T18:35:55.657Z,4.15
2022-08-29T18:38:23.227Z,4.18
2022-08-29T18:40:53.788Z,4.20
2022-08-29T18:43:21.603Z,4.55
2022-08-29T18:45:48.896Z,4.93
2022-08-29T18:48:16.958Z,5.72
2022-08-29T18:50:44.894Z,5.45
2022-08-29T18:53:18.351Z,5.63
2022-08-29T18:55:51.212Z,4.97
2022-08-29T18:58:21.649Z,5.13
2022-08-29T19:00:48.838Z,6.13
2022-08-29T19:03:16.000Z,6.40
2022-08-29T19:05:49.744Z,6.00
2022-08-29T19:08:19.710Z,6.82
2022-08-29T19:10:47.979Z,6.47
2022-08-29T19:13:15.850Z,6.10
2022-08-29T19:15:45.403Z,5.30
2022-08-29T19:18:14.301Z,4.20
2022-08-29T19:21:00.275Z,5.13
2022-08-29T19:23:27.099Z,4.40
2022-08-29T19:25:54.146Z,4.78
2022-08-29T19:28:21.588Z,4.57
2022-08-29T19:30:49.617Z,4.50
2022-08-29T19:33:18.592Z,4.90
2022-08-29T19:35:49.243Z,4.85
2022-08-29T19:38:16.718Z,4.57
2022-08-29T19:40:43.725Z,4.28
2022-08-29T19:45:59.950Z,4.60
2022-08-29T19:48:28.590Z,4.55
2022-08-29T19:50:57.065Z,4.07
2022-08-29T19:53:26.386Z,4.45
2022-08-29T19:55:56.879Z,4.57
2022-08-29T19:58:31.317Z,4.43
2022-08-29T20:01:03.260Z,5.78
2022-08-29T20:03:31.008Z,5.03
2022-08-29T20:05:59.881Z,4.25
2022-08-29T20:08:27.632Z,4.25
2022-08-29T20:10:58.448Z,4.80
2022-08-29T20:13:27.362Z,4.93
2022-08-29T20:15:55.304Z,4.90
2022-08-29T20:18:22.664Z,4.50
2022-08-29T20:20:49.700Z,4.30
2022-08-29T20:23:17.561Z,4.32
2022-08-29T20:25:46.004Z,4.75
2022-08-29T20:28:15.421Z,5.15
2022-08-29T20:30:43.783Z,5.00
2022-08-29T20:33:11.684Z,4.45
2022-08-29T20:35:57.567Z,4.53
2022-08-29T20:38:24.286Z,4.80
2022-08-29T20:40:52.264Z,4.75
2022-08-29T20:43:19.868Z,4.63
2022-08-29T20:45:47.398Z,4.28
2022-08-29T20:48:14.522Z,4.68
2022-08-29T20:50:41.784Z,4.47
2022-08-29T20:53:09.252Z,4.80
2022-08-29T20:55:41.487Z,4.32
2022-08-29T20:58:08.465Z,5.00
2022-08-29T21:00:35.280Z,5.25
2022-08-29T21:03:20.717Z,4.53
2022-08-29T21:05:47.513Z,5.07
2022-08-29T21:08:22.921Z,5.70
2022-08-29T21:10:53.343Z,5.18
2022-08-29T21:13:20.737Z,5.00
2022-08-29T21:15:47.549Z,4.60
2022-08-29T21:18:19.048Z,4.78
2022-08-29T21:20:53.752Z,4.57
2022-08-29T21:23:23.203Z,4.40
2022-08-29T21:25:55.646Z,4.93
2022-08-29T21:28:24.999Z,4.95
2022-08-29T21:30:52.893Z,5.10
2022-08-29T21:33:20.734Z,4.95
2022-08-29T21:35:49.770Z,5.22
2022-08-29T21:38:17.174Z,5.60
2022-08-29T21:40:50.321Z,4.85
2022-08-29T21:43:19.517Z,5.50
2022-08-29T21:45:47.622Z,5.07
2022-08-29T21:48:14.404Z,5.28
2022-08-29T21:50:41.622Z,4.68
2022-08-29T21:53:11.424Z,6.30
2022-08-29T21:55:38.238Z,4.65
2022-08-29T21:58:05.097Z,4.88
2022-08-29T22:00:34.974Z,5.07
2022-08-29T22:03:07.169Z,5.18
2022-08-29T22:05:34.245Z,5.28
2022-08-29T22:08:04.396Z,5.25
2022-08-29T22:10:36.253Z,5.65
2022-08-29T22:15:49.075Z,5.35
2022-08-29T22:18:16.264Z,5.18
2022-08-29T22:20:46.727Z,5.40
2022-08-29T22:23:14.955Z,5.50
2022-08-29T22:25:45.530Z,5.50
2022-08-29T22:28:12.562Z,5.18
2022-08-29T22:30:39.417Z,5.22
2022-08-29T22:33:06.844Z,5.18
2022-08-29T22:35:35.682Z,5.22
2022-08-29T22:38:02.926Z,5.72
2022-08-29T22:40:30.092Z,5.30
2022-08-29T22:42:57.364Z,5.93
2022-08-29T22:45:24.630Z,5.43
2022-08-29T22:47:51.474Z,6.55
2022-08-29T22:50:26.651Z,5.55
2022-08-29T22:52:58.725Z,5.38
2022-08-29T22:57:51.961Z,5.85
2022-08-29T23:00:24.785Z,5.82
2022-08-29T23:02:53.057Z,5.20
2022-08-29T23:05:21.518Z,5.88
2022-08-29T23:07:48.634Z,5.47
2022-08-29T23:10:15.913Z,5.70
2022-08-29T23:12:42.756Z,5.95
2022-08-29T23:15:13.540Z,5.30
2022-08-29T23:17:40.875Z,5.43
2022-08-29T23:20:11.492Z,5.95
2022-08-29T23:22:38.980Z,5.78
2022-08-29T23:25:10.913Z,5.57
2022-08-29T23:27:37.660Z,5.63
2022-08-29T23:30:07.281Z,6.00
2022-08-29T23:32:34.045Z,5.88
2022-08-29T23:35:00.844Z,5.93
2022-08-29T23:37:27.662Z,5.85
2022-08-29T23:39:54.529Z,6.05
2022-08-29T23:42:21.426Z,5.85
2022-08-29T23:44:48.741Z,5.75
2022-08-29T23:47:16.061Z,6.07
2022-08-29T23:49:42.850Z,5.85
2022-08-29T23:52:09.690Z,5.68
2022-08-29T23:54:36.986Z,5.30
2022-08-29T23:57:04.586Z,6.22
2022-08-29T23:59:51.996Z,6.15
